Private Wetterstation Sandau
Wetterdaten: Dienstag, 21.02.2012
Datum Zeit Temp. A. Feuchte A. Luftdruck Regen Wind Richtung Richtung Taupunkt Windchill
21.02.2012 00:02 1,3 C 77 % 1030,8 hPa 0,0 l/m 11,9 km/h (2 Bft) W-SW 247 -2,3 C -2,2 C
21.02.2012 00:07 1,3 C 77 % 1030,6 hPa 0,0 l/m 5,4 km/h (1 Bft) SW 225 -2,3 C -0,3 C
21.02.2012 00:12 1,3 C 77 % 1030,7 hPa 0,0 l/m 10,4 km/h (2 Bft) W-SW 247 -2,3 C -1,9 C
21.02.2012 00:17 1,3 C 76 % 1030,6 hPa 0,0 l/m 9,0 km/h (2 Bft) SW 225 -2,5 C -1,5 C
21.02.2012 00:22 1,3 C 76 % 1030,6 hPa 0,0 l/m 12,2 km/h (2 Bft) SW 225 -2,5 C -2,3 C
21.02.2012 00:27 1,4 C 76 % 1030,6 hPa 0,0 l/m 6,8 km/h (2 Bft) S 180 -2,4 C -0,7 C
21.02.2012 00:32 1,3 C 76 % 1030,6 hPa 0,0 l/m 8,3 km/h (2 Bft) W-SW 247 -2,5 C -1,3 C
21.02.2012 00:37 1,3 C 76 % 1030,5 hPa 0,0 l/m 9,7 km/h (2 Bft) S 180 -2,5 C -1,7 C
21.02.2012 00:42 1,3 C 76 % 1030,2 hPa 0,0 l/m 11,2 km/h (2 Bft) S-SW 202 -2,5 C -2,0 C
21.02.2012 00:47 1,3 C 76 % 1030,2 hPa 0,0 l/m 5,8 km/h (2 Bft) S 180 -2,5 C -0,5 C
21.02.2012 00:52 1,3 C 77 % 1030,2 hPa 0,0 l/m 11,9 km/h (2 Bft) S-SW 202 -2,3 C -2,2 C
21.02.2012 00:57 1,3 C 77 % 1030,2 hPa 0,0 l/m 10,8 km/h (2 Bft) S-SW 202 -2,3 C -2,0 C
21.02.2012 01:02 1,2 C 77 % 1030,0 hPa 0,0 l/m 11,2 km/h (2 Bft) S-SW 202 -2,4 C -2,2 C
21.02.2012 01:07 1,2 C 77 % 1030,0 hPa 0,0 l/m 9,4 km/h (2 Bft) SW 225 -2,4 C -1,7 C
21.02.2012 01:12 1,2 C 77 % 1030,0 hPa 0,0 l/m 13,7 km/h (3 Bft) SO 135 -2,4 C -2,7 C
21.02.2012 01:17 1,2 C 77 % 1030,1 hPa 0,0 l/m 11,9 km/h (2 Bft) S-SW 202 -2,4 C -2,3 C
21.02.2012 01:22 1,2 C 77 % 1029,9 hPa 0,0 l/m 11,2 km/h (2 Bft) S-SO 157 -2,4 C -2,2 C
21.02.2012 01:27 1,2 C 77 % 1029,8 hPa 0,0 l/m 10,4 km/h (2 Bft) S 180 -2,4 C -2,0 C
21.02.2012 01:32 1,3 C 77 % 1029,8 hPa 0,0 l/m 14,0 km/h (3 Bft) S 180 -2,3 C -2,6 C
21.02.2012 01:37 1,2 C 77 % 1029,9 hPa 0,0 l/m 10,8 km/h (2 Bft) S 180 -2,4 C -2,1 C
21.02.2012 01:42 1,3 C 77 % 1029,7 hPa 0,0 l/m 21,2 km/h (4 Bft) S-SO 157 -2,3 C -3,8 C
21.02.2012 01:47 1,3 C 77 % 1029,7 hPa 0,0 l/m 19,4 km/h (3 Bft) S-SW 202 -2,3 C -3,5 C
21.02.2012 01:52 1,3 C 77 % 1029,5 hPa 0,0 l/m 16,6 km/h (3 Bft) W 270 -2,3 C -3,1 C
21.02.2012 01:57 1,3 C 77 % 1029,4 hPa 0,0 l/m 12,2 km/h (2 Bft) S 180 -2,3 C -2,3 C
21.02.2012 02:02 1,3 C 77 % 1029,5 hPa 0,0 l/m 13,7 km/h (3 Bft) S-SW 202 -2,3 C -2,6 C
21.02.2012 02:07 1,3 C 76 % 1029,4 hPa 0,0 l/m 11,2 km/h (2 Bft) W-SW 247 -2,5 C -2,0 C
21.02.2012 02:12 1,3 C 76 % 1029,3 hPa 0,0 l/m 10,4 km/h (2 Bft) S 180 -2,5 C -1,9 C
21.02.2012 02:17 1,3 C 76 % 1029,4 hPa 0,0 l/m 22,0 km/h (4 Bft) S-SW 202 -2,5 C -3,9 C
21.02.2012 02:22 1,3 C 76 % 1029,0 hPa 0,0 l/m 6,5 km/h (2 Bft) SW 225 -2,5 C -0,7 C
21.02.2012 02:27 1,3 C 76 % 1029,0 hPa 0,0 l/m 19,4 km/h (3 Bft) S 180 -2,5 C -3,5 C
21.02.2012 02:32 1,4 C 76 % 1029,1 hPa 0,0 l/m 16,2 km/h (3 Bft) S-SO 157 -2,4 C -2,9 C
21.02.2012 02:37 1,4 C 75 % 1028,9 hPa 0,0 l/m 13,0 km/h (3 Bft) S 180 -2,5 C -2,3 C
21.02.2012 02:42 1,4 C 75 % 1028,9 hPa 0,0 l/m 18,0 km/h (3 Bft) S 180 -2,5 C -3,2 C
21.02.2012 02:47 1,4 C 76 % 1028,8 hPa 0,0 l/m 16,9 km/h (3 Bft) S-SW 202 -2,4 C -3,0 C
21.02.2012 02:52 1,5 C 75 % 1028,5 hPa 0,0 l/m 14,4 km/h (3 Bft) S 180 -2,4 C -2,5 C
21.02.2012 02:57 1,5 C 75 % 1028,6 hPa 0,0 l/m 10,8 km/h (2 Bft) W-SW 247 -2,4 C -1,7 C
21.02.2012 03:02 1,5 C 75 % 1028,7 hPa 0,0 l/m 8,6 km/h (2 Bft) W-SW 247 -2,4 C -1,2 C
21.02.2012 03:07 1,5 C 75 % 1028,5 hPa 0,0 l/m 9,7 km/h (2 Bft) W-SW 247 -2,4 C -1,4 C
21.02.2012 03:12 1,5 C 75 % 1028,5 hPa 0,0 l/m 24,8 km/h (4 Bft) S-SW 202 -2,4 C -4,0 C
21.02.2012 03:17 1,5 C 75 % 1028,5 hPa 0,0 l/m 13,3 km/h (3 Bft) SW 225 -2,4 C -2,2 C
21.02.2012 03:22 1,5 C 75 % 1028,1 hPa 0,0 l/m 9,7 km/h (2 Bft) W 270 -2,4 C -1,4 C
21.02.2012 03:27 1,6 C 75 % 1028,1 hPa 0,0 l/m 8,6 km/h (2 Bft) S 180 -2,3 C -1,0 C
21.02.2012 03:32 1,5 C 75 % 1028,0 hPa 0,0 l/m 16,9 km/h (3 Bft) S-SO 157 -2,4 C -2,9 C
21.02.2012 03:37 1,5 C 75 % 1028,0 hPa 0,0 l/m 10,1 km/h (2 Bft) S-SO 157 -2,4 C -1,5 C
21.02.2012 03:42 1,5 C 76 % 1027,8 hPa 0,0 l/m 12,6 km/h (3 Bft) SW 225 -2,3 C -2,1 C
21.02.2012 03:47 1,6 C 75 % 1027,7 hPa 0,0 l/m 14,4 km/h (3 Bft) W-SW 247 -2,3 C -2,3 C
21.02.2012 03:52 1,6 C 75 % 1027,7 hPa 0,0 l/m 9,7 km/h (2 Bft) S-SO 157 -2,3 C -1,3 C
21.02.2012 03:57 1,6 C 75 % 1027,7 hPa 0,0 l/m 14,8 km/h (3 Bft) W-SW 247 -2,3 C -2,4 C
21.02.2012 04:02 1,6 C 75 % 1027,4 hPa 0,0 l/m 18,0 km/h (3 Bft) W-SW 247 -2,3 C -2,9 C
21.02.2012 04:07 1,7 C 75 % 1027,5 hPa 0,0 l/m 14,4 km/h (3 Bft) SW 225 -2,2 C -2,2 C
21.02.2012 04:12 1,6 C 75 % 1027,2 hPa 0,0 l/m 27,0 km/h (4 Bft) SW 225 -2,3 C -4,1 C
21.02.2012 04:17 1,6 C 75 % 1027,3 hPa 0,0 l/m 19,8 km/h (3 Bft) SW 225 -2,3 C -3,2 C
21.02.2012 04:22 1,8 C 75 % 1027,2 hPa 0,0 l/m 19,1 km/h (3 Bft) SW 225 -2,1 C -2,8 C
21.02.2012 04:27 1,8 C 75 % 1027,2 hPa 0,0 l/m 13,7 km/h (3 Bft) SW 225 -2,1 C -2,0 C
21.02.2012 04:32 1,8 C 75 % 1027,1 hPa 0,0 l/m 13,7 km/h (3 Bft) S-SW 202 -2,1 C -2,0 C
21.02.2012 04:37 1,8 C 74 % 1026,9 hPa 0,0 l/m 15,5 km/h (3 Bft) W-SW 247 -2,3 C -2,3 C
21.02.2012 04:42 1,9 C 74 % 1027,0 hPa 0,0 l/m 12,2 km/h (2 Bft) S-SW 202 -2,2 C -1,5 C
21.02.2012 04:47 1,9 C 74 % 1026,9 hPa 0,0 l/m 9,7 km/h (2 Bft) S-SW 202 -2,2 C -1,0 C
21.02.2012 04:52 1,9 C 74 % 1026,8 hPa 0,0 l/m 10,4 km/h (2 Bft) S 180 -2,2 C -1,1 C
21.02.2012 04:57 1,9 C 74 % 1026,7 hPa 0,0 l/m 11,2 km/h (2 Bft) W-SW 247 -2,2 C -1,3 C
21.02.2012 05:02 2,0 C 74 % 1026,6 hPa 0,0 l/m 12,2 km/h (2 Bft) S-SW 202 -2,1 C -1,4 C
21.02.2012 05:07 2,0 C 74 % 1026,5 hPa 0,0 l/m 14,4 km/h (3 Bft) S-SW 202 -2,1 C -1,8 C
21.02.2012 05:12 2,1 C 74 % 1026,4 hPa 0,0 l/m 24,1 km/h (4 Bft) W-SW 247 -2,0 C -3,1 C
21.02.2012 05:17 2,1 C 74 % 1026,4 hPa 0,0 l/m 25,6 km/h (4 Bft) SW 225 -2,0 C -3,3 C
21.02.2012 05:22 2,1 C 73 % 1026,5 hPa 0,0 l/m 11,9 km/h (2 Bft) S-SW 202 -2,2 C -1,2 C
21.02.2012 05:27 2,1 C 73 % 1026,4 hPa 0,0 l/m 19,4 km/h (3 Bft) W-SW 247 -2,2 C -2,5 C
21.02.2012 05:32 2,1 C 73 % 1026,4 hPa 0,0 l/m 8,6 km/h (2 Bft) W 270 -2,2 C -0,4 C
21.02.2012 05:37 2,2 C 73 % 1026,2 hPa 0,0 l/m 6,5 km/h (2 Bft) W-SW 247 -2,1 C 0,3 C
21.02.2012 05:42 2,2 C 73 % 1026,2 hPa 0,0 l/m 18,0 km/h (3 Bft) W 270 -2,1 C -2,2 C
21.02.2012 05:47 2,3 C 73 % 1026,1 hPa 0,0 l/m 13,0 km/h (3 Bft) S-SW 202 -2,0 C -1,2 C
21.02.2012 05:52 2,3 C 72 % 1026,0 hPa 0,0 l/m 14,0 km/h (3 Bft) W 270 -2,2 C -1,4 C
21.02.2012 05:57 2,4 C 72 % 1025,9 hPa 0,0 l/m 18,7 km/h (3 Bft) S 180 -2,1 C -2,0 C
21.02.2012 06:02 2,4 C 72 % 1025,9 hPa 0,0 l/m 24,1 km/h (4 Bft) SW 225 -2,1 C -2,7 C
21.02.2012 06:07 2,4 C 72 % 1025,9 hPa 0,0 l/m 14,8 km/h (3 Bft) W-SW 247 -2,1 C -1,4 C
21.02.2012 06:12 2,4 C 72 % 1026,1 hPa 0,0 l/m 18,4 km/h (3 Bft) W 270 -2,1 C -2,0 C
21.02.2012 06:17 2,4 C 71 % 1025,7 hPa 0,0 l/m 19,1 km/h (3 Bft) W 270 -2,3 C -2,1 C
21.02.2012 06:22 2,4 C 71 % 1025,5 hPa 0,0 l/m 16,9 km/h (3 Bft) W-SW 247 -2,3 C -1,8 C
21.02.2012 06:27 2,4 C 71 % 1025,5 hPa 0,0 l/m 20,9 km/h (4 Bft) W-SW 247 -2,3 C -2,3 C
21.02.2012 06:32 2,5 C 71 % 1025,4 hPa 0,0 l/m 12,6 km/h (3 Bft) W-SW 247 -2,2 C -0,9 C
21.02.2012 06:37 2,5 C 71 % 1025,5 hPa 0,0 l/m 27,0 km/h (4 Bft) S-SW 202 -2,2 C -2,9 C
21.02.2012 06:42 2,5 C 71 % 1025,4 hPa 0,0 l/m 12,6 km/h (3 Bft) W-SW 247 -2,2 C -0,9 C
21.02.2012 06:47 2,5 C 71 % 1025,4 hPa 0,0 l/m 11,9 km/h (2 Bft) S 180 -2,2 C -0,8 C
21.02.2012 06:52 2,5 C 71 % 1025,4 hPa 0,0 l/m 17,3 km/h (3 Bft) W-SW 247 -2,2 C -1,7 C
21.02.2012 06:57 2,6 C 71 % 1025,6 hPa 0,0 l/m 24,5 km/h (4 Bft) SW 225 -2,1 C -2,5 C
21.02.2012 07:02 2,6 C 71 % 1025,5 hPa 0,0 l/m 19,1 km/h (3 Bft) W-SW 247 -2,1 C -1,8 C
21.02.2012 07:07 2,6 C 71 % 1025,6 hPa 0,0 l/m 11,9 km/h (2 Bft) W-SW 247 -2,1 C -0,6 C
21.02.2012 07:12 2,5 C 72 % 1026,0 hPa 0,0 l/m 32,0 km/h (5 Bft) SW 225 -2,0 C -3,4 C
21.02.2012 07:17 2,4 C 73 % 1026,0 hPa 0,0 l/m 13,3 km/h (3 Bft) W 270 -1,9 C -1,2 C
21.02.2012 07:22 2,3 C 75 % 1026,1 hPa 0,0 l/m 19,1 km/h (3 Bft) W-SW 247 -1,7 C -2,2 C
21.02.2012 07:27 2,1 C 77 % 1026,0 hPa 0,0 l/m 23,0 km/h (4 Bft) W-SW 247 -1,5 C -3,0 C
21.02.2012 07:32 1,8 C 79 % 1025,9 hPa 0,0 l/m 27,0 km/h (4 Bft) W-SW 247 -1,4 C -3,8 C
21.02.2012 07:37 1,6 C 80 % 1026,0 hPa 0,0 l/m 9,4 km/h (2 Bft) W-SW 247 -1,5 C -1,3 C
21.02.2012 07:42 1,4 C 81 % 1025,8 hPa 0,0 l/m 13,3 km/h (3 Bft) W-SW 247 -1,5 C -2,4 C
21.02.2012 07:47 1,3 C 83 % 1025,9 hPa 0,0 l/m 13,3 km/h (3 Bft) W-SW 247 -1,3 C -2,5 C
21.02.2012 07:52 1,3 C 83 % 1025,9 hPa 0,0 l/m 12,2 km/h (2 Bft) W 270 -1,3 C -2,3 C
21.02.2012 07:57 1,3 C 84 % 1025,8 hPa 0,0 l/m 9,4 km/h (2 Bft) W-SW 247 -1,1 C -1,6 C
21.02.2012 08:02 1,3 C 84 % 1025,7 hPa 0,0 l/m 14,0 km/h (3 Bft) W-SW 247 -1,1 C -2,6 C
21.02.2012 08:07 1,3 C 85 % 1025,6 hPa 0,0 l/m 13,0 km/h (3 Bft) W-SW 247 -0,9 C -2,4 C
21.02.2012 08:12 1,3 C 85 % 1025,6 hPa 0,0 l/m 9,0 km/h (2 Bft) W-SW 247 -0,9 C -1,5 C
21.02.2012 08:17 1,3 C 85 % 1025,6 hPa 0,0 l/m 12,6 km/h (3 Bft) SW 225 -0,9 C -2,4 C
21.02.2012 08:22 1,3 C 85 % 1025,5 hPa 0,0 l/m 11,5 km/h (2 Bft) W-SW 247 -0,9 C -2,1 C
21.02.2012 08:27 1,3 C 85 % 1025,8 hPa 0,0 l/m 18,4 km/h (3 Bft) SW 225 -0,9 C -3,4 C
21.02.2012 08:32 1,3 C 85 % 1025,6 hPa 0,0 l/m 9,4 km/h (2 Bft) W-SW 247 -0,9 C -1,6 C
21.02.2012 08:37 1,3 C 85 % 1025,6 hPa 0,0 l/m 20,5 km/h (4 Bft) S-SW 202 -0,9 C -3,7 C
21.02.2012 08:42 1,3 C 85 % 1025,6 hPa 0,0 l/m 11,2 km/h (2 Bft) W-SW 247 -0,9 C -2,0 C
21.02.2012 08:47 1,3 C 85 % 1025,6 hPa 0,0 l/m 12,6 km/h (3 Bft) W 270 -0,9 C -2,4 C
21.02.2012 08:52 1,3 C 85 % 1025,7 hPa 0,0 l/m 13,3 km/h (3 Bft) W 270 -0,9 C -2,5 C
21.02.2012 08:57 1,3 C 86 % 1025,5 hPa 0,0 l/m 8,6 km/h (2 Bft) SW 225 -0,8 C -1,4 C
21.02.2012 09:02 1,3 C 86 % 1025,6 hPa 0,0 l/m 19,4 km/h (3 Bft) SW 225 -0,8 C -3,5 C
21.02.2012 09:07 1,3 C 86 % 1025,6 hPa 0,0 l/m 19,1 km/h (3 Bft) W 270 -0,8 C -3,5 C
21.02.2012 09:12 1,3 C 86 % 1025,7 hPa 0,0 l/m 20,9 km/h (4 Bft) W-SW 247 -0,8 C -3,7 C
21.02.2012 09:17 1,3 C 87 % 1025,6 hPa 0,0 l/m 9,0 km/h (2 Bft) SW 225 -0,6 C -1,5 C
21.02.2012 09:22 1,3 C 87 % 1025,5 hPa 0,0 l/m 12,6 km/h (3 Bft) W-SW 247 -0,6 C -2,4 C
21.02.2012 09:27 1,3 C 87 % 1025,8 hPa 0,0 l/m 9,4 km/h (2 Bft) W-SW 247 -0,6 C -1,6 C
21.02.2012 09:32 1,4 C 88 % 1025,6 hPa 0,0 l/m 13,0 km/h (3 Bft) W 270 -0,4 C -2,3 C
21.02.2012 09:37 1,5 C 88 % 1025,7 hPa 0,0 l/m 10,1 km/h (2 Bft) SW 225 -0,3 C -1,5 C
21.02.2012 09:42 1,5 C 87 % 1025,6 hPa 0,0 l/m 17,6 km/h (3 Bft) SW 225 -0,4 C -3,0 C
21.02.2012 09:47 1,5 C 87 % 1025,6 hPa 0,0 l/m 22,3 km/h (4 Bft) W-SW 247 -0,4 C -3,7 C
21.02.2012 09:52 1,5 C 87 % 1025,6 hPa 0,0 l/m 16,2 km/h (3 Bft) W 270 -0,4 C -2,8 C
21.02.2012 09:57 1,6 C 87 % 1025,6 hPa 0,0 l/m 14,0 km/h (3 Bft) W 270 -0,3 C -2,3 C
21.02.2012 10:02 1,8 C 87 % 1025,7 hPa 0,0 l/m 25,2 km/h (4 Bft) W-SW 247 -0,1 C -3,6 C
21.02.2012 10:07 1,8 C 87 % 1025,8 hPa 0,0 l/m 19,4 km/h (3 Bft) W 270 -0,1 C -2,9 C
21.02.2012 10:12 1,9 C 87 % 1025,8 hPa 0,0 l/m 15,5 km/h (3 Bft) SW 225 -0,0 C -2,2 C
21.02.2012 10:17 1,9 C 87 % 1025,5 hPa 0,0 l/m 13,0 km/h (3 Bft) W-SW 247 -0,0 C -1,7 C
21.02.2012 10:22 2,0 C 87 % 1025,5 hPa 0,0 l/m 17,6 km/h (3 Bft) S 180 0,1 C -2,4 C
21.02.2012 10:27 2,1 C 86 % 1025,5 hPa 0,0 l/m 15,5 km/h (3 Bft) SW 225 0,0 C -1,9 C
21.02.2012 10:32 2,2 C 86 % 1025,5 hPa 0,0 l/m 14,0 km/h (3 Bft) W-SW 247 0,1 C -1,5 C
21.02.2012 10:37 2,2 C 86 % 1025,6 hPa 0,0 l/m 14,4 km/h (3 Bft) W-NW 292 0,1 C -1,6 C
21.02.2012 10:42 2,2 C 86 % 1025,7 hPa 0,0 l/m 13,0 km/h (3 Bft) W-SW 247 0,1 C -1,3 C
21.02.2012 10:47 2,2 C 86 % 1025,6 hPa 0,0 l/m 10,1 km/h (2 Bft) S-SW 202 0,1 C -0,7 C
21.02.2012 10:52 2,4 C 86 % 1025,6 hPa 0,0 l/m 14,0 km/h (3 Bft) SW 225 0,3 C -1,3 C
21.02.2012 10:57 2,4 C 86 % 1025,8 hPa 0,0 l/m 9,7 km/h (2 Bft) W-SW 247 0,3 C -0,4 C
21.02.2012 11:02 2,4 C 86 % 1025,8 hPa 0,0 l/m 10,4 km/h (2 Bft) SW 225 0,3 C -0,5 C
21.02.2012 11:07 2,4 C 85 % 1025,8 hPa 0,0 l/m 10,4 km/h (2 Bft) SW 225 0,1 C -0,5 C
21.02.2012 11:12 2,4 C 85 % 1025,8 hPa 0,0 l/m 9,4 km/h (2 Bft) W-SW 247 0,1 C -0,3 C
21.02.2012 11:17 2,4 C 86 % 1025,8 hPa 0,0 l/m 9,4 km/h (2 Bft) W-SW 247 0,3 C -0,3 C
21.02.2012 11:22 2,5 C 86 % 1025,9 hPa 0,0 l/m 11,9 km/h (2 Bft) W-NW 292 0,4 C -0,8 C
21.02.2012 11:27 2,5 C 86 % 1025,9 hPa 0,0 l/m 20,9 km/h (4 Bft) W-SW 247 0,4 C -2,2 C
21.02.2012 11:32 2,5 C 86 % 1025,9 hPa 0,5 l/m 6,8 km/h (2 Bft) W 270 0,4 C 0,6 C
21.02.2012 11:37 2,5 C 86 % 1025,8 hPa 0,0 l/m 11,5 km/h (2 Bft) S-SW 202 0,4 C -0,7 C
21.02.2012 11:42 2,5 C 86 % 1025,7 hPa 0,0 l/m 9,7 km/h (2 Bft) W 270 0,4 C -0,3 C
21.02.2012 11:47 2,5 C 86 % 1025,8 hPa 0,0 l/m 6,1 km/h (2 Bft) W 270 0,4 C 0,8 C
21.02.2012 11:52 2,5 C 86 % 1025,6 hPa 0,5 l/m 9,0 km/h (2 Bft) W-SW 247 0,4 C -0,1 C
21.02.2012 11:57 2,5 C 86 % 1025,8 hPa 0,0 l/m 14,0 km/h (3 Bft) SW 225 0,4 C -1,2 C
21.02.2012 12:02 2,5 C 86 % 1025,5 hPa 0,0 l/m 7,9 km/h (2 Bft) S 180 0,4 C 0,2 C
21.02.2012 12:07 2,5 C 86 % 1025,7 hPa 0,5 l/m 10,4 km/h (2 Bft) S-SW 202 0,4 C -0,4 C
21.02.2012 12:12 2,5 C 86 % 1025,7 hPa 0,0 l/m 13,3 km/h (3 Bft) W-SW 247 0,4 C -1,0 C
21.02.2012 12:17 2,6 C 86 % 1025,7 hPa 0,0 l/m 23,4 km/h (4 Bft) W-SW 247 0,5 C -2,4 C
21.02.2012 12:22 2,6 C 87 % 1025,6 hPa 0,0 l/m 6,1 km/h (2 Bft) W-NW 292 0,7 C 0,9 C
21.02.2012 12:27 2,7 C 87 % 1025,8 hPa 0,5 l/m 10,1 km/h (2 Bft) W-SW 247 0,8 C -0,1 C
21.02.2012 12:32 2,7 C 87 % 1025,6 hPa 0,0 l/m 15,5 km/h (3 Bft) W-SW 247 0,8 C -1,2 C
21.02.2012 12:37 2,7 C 87 % 1025,6 hPa 0,0 l/m 7,9 km/h (2 Bft) W-SW 247 0,8 C 0,5 C
21.02.2012 12:42 2,7 C 87 % 1025,8 hPa 0,5 l/m 11,2 km/h (2 Bft) W 270 0,8 C -0,4 C
21.02.2012 12:47 2,7 C 87 % 1025,7 hPa 0,0 l/m 8,6 km/h (2 Bft) SW 225 0,8 C 0,3 C
21.02.2012 12:52 2,7 C 87 % 1025,6 hPa 0,0 l/m 7,6 km/h (2 Bft) W-SW 247 0,8 C 0,6 C
21.02.2012 12:57 2,7 C 87 % 1025,5 hPa 0,0 l/m 15,8 km/h (3 Bft) W-SW 247 0,8 C -1,2 C
21.02.2012 13:02 2,8 C 88 % 1025,5 hPa 0,0 l/m 13,3 km/h (3 Bft) W-SW 247 1,0 C -0,7 C
21.02.2012 13:07 2,8 C 88 % 1025,7 hPa 0,0 l/m 14,8 km/h (3 Bft) W-SW 247 1,0 C -0,9 C
21.02.2012 13:12 2,8 C 88 % 1025,5 hPa 0,5 l/m 15,5 km/h (3 Bft) SW 225 1,0 C -1,0 C
21.02.2012 13:17 2,8 C 88 % 1025,6 hPa 0,0 l/m 6,8 km/h (2 Bft) W 270 1,0 C 0,9 C
21.02.2012 13:22 2,8 C 88 % 1025,5 hPa 0,0 l/m 11,5 km/h (2 Bft) W 270 1,0 C -0,3 C
21.02.2012 13:27 2,9 C 88 % 1025,7 hPa 0,0 l/m 12,2 km/h (2 Bft) W-SW 247 1,1 C -0,3 C
21.02.2012 13:32 2,9 C 88 % 1025,6 hPa 0,0 l/m 9,4 km/h (2 Bft) W-NW 292 1,1 C 0,3 C
21.02.2012 13:37 2,9 C 88 % 1025,6 hPa 0,0 l/m 14,4 km/h (3 Bft) W-SW 247 1,1 C -0,7 C
21.02.2012 13:42 2,9 C 88 % 1025,6 hPa 0,0 l/m 16,9 km/h (3 Bft) W 270 1,1 C -1,1 C
21.02.2012 13:47 2,9 C 88 % 1025,5 hPa 0,0 l/m 12,6 km/h (3 Bft) W-NW 292 1,1 C -0,4 C
21.02.2012 13:52 2,9 C 88 % 1025,6 hPa 0,5 l/m 9,7 km/h (2 Bft) W 270 1,1 C 0,2 C
21.02.2012 13:57 2,9 C 88 % 1025,5 hPa 0,0 l/m 14,8 km/h (3 Bft) W-SW 247 1,1 C -0,8 C
21.02.2012 14:02 2,9 C 89 % 1025,7 hPa 0,0 l/m 11,2 km/h (2 Bft) S 180 1,3 C -0,1 C
21.02.2012 14:07 2,9 C 89 % 1025,5 hPa 0,0 l/m 15,8 km/h (3 Bft) W-SW 247 1,3 C -1,0 C
21.02.2012 14:12 2,9 C 89 % 1025,6 hPa 0,0 l/m 9,7 km/h (2 Bft) W-SW 247 1,3 C 0,2 C
21.02.2012 14:17 2,9 C 89 % 1025,6 hPa 0,0 l/m 11,9 km/h (2 Bft) SW 225 1,3 C -0,3 C
21.02.2012 14:22 2,9 C 89 % 1025,5 hPa 0,0 l/m 15,5 km/h (3 Bft) W 270 1,3 C -0,9 C
21.02.2012 14:27 3,0 C 89 % 1025,4 hPa 0,0 l/m 13,7 km/h (3 Bft) W-SW 247 1,4 C -0,5 C
21.02.2012 14:32 3,0 C 89 % 1025,6 hPa 0,0 l/m 15,5 km/h (3 Bft) W-SW 247 1,4 C -0,8 C
21.02.2012 14:37 3,0 C 89 % 1025,5 hPa 0,0 l/m 16,2 km/h (3 Bft) SW 225 1,4 C -0,9 C
21.02.2012 14:42 3,1 C 89 % 1025,6 hPa 0,0 l/m 19,1 km/h (3 Bft) W-SW 247 1,5 C -1,2 C
21.02.2012 14:47 3,1 C 89 % 1025,5 hPa 0,0 l/m 16,9 km/h (3 Bft) W 270 1,5 C -0,9 C
21.02.2012 14:52 3,1 C 89 % 1025,4 hPa 0,0 l/m 6,1 km/h (2 Bft) W-SW 247 1,5 C 1,5 C
21.02.2012 14:57 3,1 C 89 % 1025,6 hPa 0,0 l/m 11,5 km/h (2 Bft) W-SW 247 1,5 C 0,1 C
21.02.2012 15:02 3,1 C 89 % 1025,5 hPa 0,0 l/m 8,3 km/h (2 Bft) W-SW 247 1,5 C 0,8 C
21.02.2012 15:07 3,1 C 89 % 1025,6 hPa 0,0 l/m 27,0 km/h (4 Bft) W-SW 247 1,5 C -2,1 C
21.02.2012 15:12 3,2 C 89 % 1025,6 hPa 0,0 l/m 12,2 km/h (2 Bft) W 270 1,6 C 0,0 C
21.02.2012 15:17 3,2 C 89 % 1025,5 hPa 0,0 l/m 9,7 km/h (2 Bft) W 270 1,6 C 0,6 C
21.02.2012 15:22 3,2 C 89 % 1025,5 hPa 0,0 l/m 19,1 km/h (3 Bft) W-SW 247 1,6 C -1,1 C
21.02.2012 15:27 3,3 C 89 % 1025,6 hPa 0,0 l/m 9,7 km/h (2 Bft) SW 225 1,7 C 0,7 C
21.02.2012 15:32 3,3 C 89 % 1025,7 hPa 0,0 l/m 20,2 km/h (4 Bft) W 270 1,7 C -1,1 C
21.02.2012 15:37 3,3 C 89 % 1025,7 hPa 0,0 l/m 12,2 km/h (2 Bft) W-SW 247 1,7 C 0,2 C
21.02.2012 15:42 3,3 C 89 % 1025,7 hPa 0,0 l/m 5,0 km/h (1 Bft) W-SW 247 1,7 C 2,2 C
21.02.2012 15:47 3,3 C 89 % 1025,6 hPa 0,0 l/m 14,8 km/h (3 Bft) W-SW 247 1,7 C -0,3 C
21.02.2012 15:52 3,3 C 89 % 1025,8 hPa 0,0 l/m 17,3 km/h (3 Bft) W-SW 247 1,7 C -0,7 C
21.02.2012 15:57 3,3 C 89 % 1025,6 hPa 0,0 l/m 8,3 km/h (2 Bft) W-NW 292 1,7 C 1,1 C
21.02.2012 16:02 3,4 C 89 % 1025,6 hPa 0,0 l/m 14,4 km/h (3 Bft) W-SW 247 1,8 C -0,1 C
21.02.2012 16:07 3,4 C 89 % 1025,7 hPa 0,0 l/m 6,1 km/h (2 Bft) W 270 1,8 C 1,8 C
21.02.2012 16:12 3,4 C 89 % 1025,6 hPa 0,0 l/m 6,5 km/h (2 Bft) W-NW 292 1,8 C 1,7 C
21.02.2012 16:17 3,5 C 89 % 1025,7 hPa 0,0 l/m 9,7 km/h (2 Bft) W 270 1,9 C 0,9 C
21.02.2012 16:22 3,5 C 89 % 1025,8 hPa 0,0 l/m 5,0 km/h (1 Bft) W-SW 247 1,9 C 2,4 C
21.02.2012 16:27 3,5 C 89 % 1025,7 hPa 0,0 l/m 10,1 km/h (2 Bft) W 270 1,9 C 0,8 C
21.02.2012 16:32 3,6 C 89 % 1025,8 hPa 0,0 l/m 10,8 km/h (2 Bft) W 270 2,0 C 0,8 C
21.02.2012 16:37 3,6 C 89 % 1025,8 hPa 0,0 l/m 15,8 km/h (3 Bft) W-SW 247 2,0 C -0,1 C
21.02.2012 16:42 3,6 C 89 % 1025,7 hPa 0,0 l/m 6,5 km/h (2 Bft) W 270 2,0 C 1,9 C
21.02.2012 16:47 3,6 C 89 % 1025,8 hPa 0,0 l/m 16,9 km/h (3 Bft) W 270 2,0 C -0,3 C
21.02.2012 16:52 3,6 C 89 % 1025,9 hPa 0,0 l/m 7,6 km/h (2 Bft) W-SW 247 2,0 C 1,6 C
21.02.2012 16:57 3,6 C 89 % 1025,8 hPa 0,0 l/m 5,8 km/h (2 Bft) W-NW 292 2,0 C 2,2 C
21.02.2012 17:02 3,6 C 89 % 1025,9 hPa 0,0 l/m 15,8 km/h (3 Bft) W 270 2,0 C -0,1 C
21.02.2012 17:07 3,6 C 89 % 1025,8 hPa 0,0 l/m 22,3 km/h (4 Bft) W-SW 247 2,0 C -1,0 C
21.02.2012 17:12 3,7 C 89 % 1026,1 hPa 0,0 l/m 5,4 km/h (1 Bft) W 270 2,1 C 2,4 C
21.02.2012 17:17 3,7 C 89 % 1026,1 hPa 0,0 l/m 6,8 km/h (2 Bft) W 270 2,1 C 2,0 C
21.02.2012 17:22 3,8 C 89 % 1026,1 hPa 0,0 l/m 10,4 km/h (2 Bft) W 270 2,2 C 1,1 C
21.02.2012 17:27 3,8 C 89 % 1026,0 hPa 0,0 l/m 4,0 km/h (1 Bft) W 270 2,2 C 3,8 C
21.02.2012 17:32 3,8 C 89 % 1026,2 hPa 0,0 l/m 10,1 km/h (2 Bft) W 270 2,2 C 1,2 C
21.02.2012 17:37 3,8 C 89 % 1026,3 hPa 0,0 l/m 12,2 km/h (2 Bft) W 270 2,2 C 0,8 C
21.02.2012 17:42 3,8 C 89 % 1026,3 hPa 0,0 l/m 9,0 km/h (2 Bft) W-SW 247 2,2 C 1,5 C
21.02.2012 17:47 3,8 C 89 % 1026,3 hPa 0,0 l/m 13,0 km/h (3 Bft) W-SW 247 2,2 C 0,6 C
21.02.2012 17:52 3,8 C 89 % 1026,4 hPa 0,0 l/m 5,8 km/h (2 Bft) W-SW 247 2,2 C 2,4 C
21.02.2012 17:57 3,8 C 89 % 1026,3 hPa 0,0 l/m 8,3 km/h (2 Bft) W-SW 247 2,2 C 1,6 C
21.02.2012 18:02 3,8 C 89 % 1026,5 hPa 0,0 l/m 7,9 km/h (2 Bft) W 270 2,2 C 1,8 C
21.02.2012 18:07 3,8 C 89 % 1026,5 hPa 0,0 l/m 10,1 km/h (2 Bft) W 270 2,2 C 1,2 C
21.02.2012 18:12 3,8 C 89 % 1026,5 hPa 0,0 l/m 12,2 km/h (2 Bft) W-SW 247 2,2 C 0,8 C
21.02.2012 18:17 3,8 C 89 % 1026,6 hPa 0,0 l/m 9,4 km/h (2 Bft) W 270 2,2 C 1,4 C
21.02.2012 18:22 3,8 C 89 % 1026,7 hPa 0,0 l/m 6,1 km/h (2 Bft) W 270 2,2 C 2,3 C
21.02.2012 18:27 3,8 C 89 % 1026,8 hPa 0,0 l/m 10,8 km/h (2 Bft) W-SW 247 2,2 C 1,0 C
21.02.2012 18:32 3,8 C 89 % 1026,7 hPa 0,0 l/m 6,1 km/h (2 Bft) W 270 2,2 C 2,3 C
21.02.2012 18:37 3,9 C 89 % 1026,9 hPa 0,0 l/m 16,6 km/h (3 Bft) W-SW 247 2,3 C 0,1 C
21.02.2012 18:42 3,9 C 89 % 1027,1 hPa 0,0 l/m 13,3 km/h (3 Bft) W 270 2,3 C 0,7 C
21.02.2012 18:47 3,9 C 89 % 1027,2 hPa 0,0 l/m 8,6 km/h (2 Bft) W 270 2,3 C 1,7 C
21.02.2012 18:52 3,9 C 89 % 1027,0 hPa 0,0 l/m 9,7 km/h (2 Bft) W-SW 247 2,3 C 1,4 C
21.02.2012 18:57 3,9 C 90 % 1027,1 hPa 0,0 l/m 13,3 km/h (3 Bft) W 270 2,4 C 0,7 C
21.02.2012 19:02 3,9 C 90 % 1027,0 hPa 0,0 l/m 9,0 km/h (2 Bft) W-SW 247 2,4 C 1,6 C
21.02.2012 19:07 3,9 C 90 % 1027,1 hPa 0,0 l/m 6,8 km/h (2 Bft) W 270 2,4 C 2,2 C
21.02.2012 19:12 3,9 C 90 % 1027,0 hPa 0,0 l/m 13,7 km/h (3 Bft) W 270 2,4 C 0,6 C
21.02.2012 19:17 3,9 C 90 % 1027,0 hPa 0,0 l/m 6,5 km/h (2 Bft) W 270 2,4 C 2,3 C
21.02.2012 19:22 3,9 C 90 % 1027,2 hPa 0,0 l/m 14,4 km/h (3 Bft) W-SW 247 2,4 C 0,5 C
21.02.2012 19:27 3,9 C 90 % 1027,3 hPa 0,0 l/m 6,1 km/h (2 Bft) NW 315 2,4 C 2,4 C
21.02.2012 19:32 3,9 C 90 % 1027,4 hPa 0,0 l/m 14,4 km/h (3 Bft) W-SW 247 2,4 C 0,5 C
21.02.2012 19:37 4,0 C 90 % 1027,3 hPa 0,0 l/m 10,1 km/h (2 Bft) W-SW 247 2,5 C 1,4 C
21.02.2012 19:42 4,0 C 90 % 1027,3 hPa 0,0 l/m 3,2 km/h (1 Bft) W-NW 292 2,5 C 4,0 C
21.02.2012 19:47 4,1 C 90 % 1027,2 hPa 0,0 l/m 9,7 km/h (2 Bft) W-SW 247 2,6 C 1,7 C
21.02.2012 19:52 4,1 C 90 % 1027,4 hPa 0,0 l/m 11,9 km/h (2 Bft) W-SW 247 2,6 C 1,2 C
21.02.2012 19:57 4,1 C 90 % 1027,4 hPa 0,0 l/m 7,2 km/h (2 Bft) W 270 2,6 C 2,3 C
21.02.2012 20:02 4,1 C 90 % 1027,3 hPa 0,0 l/m 7,9 km/h (2 Bft) W-SW 247 2,6 C 2,1 C
21.02.2012 20:07 4,1 C 90 % 1027,3 hPa 0,0 l/m 14,0 km/h (3 Bft) W-SW 247 2,6 C 0,8 C
21.02.2012 20:12 4,1 C 90 % 1027,4 hPa 0,0 l/m 14,8 km/h (3 Bft) W-SW 247 2,6 C 0,7 C
21.02.2012 20:17 4,1 C 90 % 1027,4 hPa 0,0 l/m 10,4 km/h (2 Bft) W-SW 247 2,6 C 1,5 C
21.02.2012 20:22 4,1 C 90 % 1027,3 hPa 0,0 l/m 14,4 km/h (3 Bft) SW 225 2,6 C 0,7 C
21.02.2012 20:27 4,1 C 91 % 1027,5 hPa 0,0 l/m 10,8 km/h (2 Bft) W-SW 247 2,8 C 1,4 C
21.02.2012 20:32 4,2 C 91 % 1027,3 hPa 0,0 l/m 12,2 km/h (2 Bft) W 270 2,9 C 1,2 C
21.02.2012 20:37 4,2 C 91 % 1027,4 hPa 0,0 l/m 6,5 km/h (2 Bft) W 270 2,9 C 2,6 C
21.02.2012 20:42 4,3 C 91 % 1027,5 hPa 0,0 l/m 5,8 km/h (2 Bft) W 270 3,0 C 3,0 C
21.02.2012 20:47 4,3 C 91 % 1027,6 hPa 0,0 l/m 7,6 km/h (2 Bft) W 270 3,0 C 2,4 C
21.02.2012 20:52 4,3 C 91 % 1027,5 hPa 0,0 l/m 9,4 km/h (2 Bft) W-SW 247 3,0 C 2,0 C
21.02.2012 20:57 4,3 C 91 % 1027,7 hPa 0,0 l/m 13,7 km/h (3 Bft) W 270 3,0 C 1,1 C
21.02.2012 21:02 4,3 C 91 % 1027,6 hPa 0,0 l/m 16,9 km/h (3 Bft) W-SW 247 3,0 C 0,6 C
21.02.2012 21:07 4,4 C 91 % 1027,7 hPa 0,0 l/m 7,2 km/h (2 Bft) S-SW 202 3,1 C 2,7 C
21.02.2012 21:12 4,4 C 91 % 1027,8 hPa 0,0 l/m 9,4 km/h (2 Bft) W 270 3,1 C 2,1 C
21.02.2012 21:17 4,4 C 91 % 1027,8 hPa 0,0 l/m 24,8 km/h (4 Bft) W-NW 292 3,1 C -0,2 C
21.02.2012 21:22 4,4 C 91 % 1027,6 hPa 0,0 l/m 7,9 km/h (2 Bft) NW 315 3,1 C 2,5 C
21.02.2012 21:27 4,5 C 91 % 1027,8 hPa 0,0 l/m 11,5 km/h (2 Bft) SW 225 3,2 C 1,7 C
21.02.2012 21:32 4,5 C 91 % 1027,9 hPa 0,0 l/m 11,5 km/h (2 Bft) W-SW 247 3,2 C 1,7 C
21.02.2012 21:37 4,5 C 91 % 1027,9 hPa 0,0 l/m 15,8 km/h (3 Bft) W 270 3,2 C 1,0 C
21.02.2012 21:42 4,6 C 91 % 1027,7 hPa 0,0 l/m 14,0 km/h (3 Bft) W-SW 247 3,3 C 1,4 C
21.02.2012 21:47 4,6 C 91 % 1027,9 hPa 0,0 l/m 7,6 km/h (2 Bft) W 270 3,3 C 2,8 C
21.02.2012 21:52 4,6 C 91 % 1027,9 hPa 0,0 l/m 8,3 km/h (2 Bft) W-NW 292 3,3 C 2,6 C
21.02.2012 21:57 4,6 C 91 % 1027,9 hPa 0,0 l/m 12,6 km/h (3 Bft) W 270 3,3 C 1,7 C
21.02.2012 22:02 4,6 C 91 % 1027,9 hPa 0,0 l/m 11,2 km/h (2 Bft) W-NW 292 3,3 C 1,9 C
21.02.2012 22:07 4,7 C 91 % 1028,0 hPa 0,0 l/m 11,2 km/h (2 Bft) W 270 3,4 C 2,0 C
21.02.2012 22:12 4,8 C 91 % 1028,0 hPa 0,0 l/m 9,7 km/h (2 Bft) SW 225 3,5 C 2,5 C
21.02.2012 22:17 4,8 C 91 % 1028,0 hPa 0,0 l/m 20,9 km/h (4 Bft) W-NW 292 3,5 C 0,7 C
21.02.2012 22:22 4,8 C 91 % 1028,2 hPa 0,0 l/m 2,5 km/h (1 Bft) W-NW 292 3,5 C 4,8 C
21.02.2012 22:27 4,8 C 91 % 1028,1 hPa 0,0 l/m 8,6 km/h (2 Bft) W 270 3,5 C 2,7 C
21.02.2012 22:32 4,9 C 91 % 1028,2 hPa 0,0 l/m 8,3 km/h (2 Bft) W 270 3,6 C 2,9 C
21.02.2012 22:37 4,9 C 91 % 1028,3 hPa 0,0 l/m 10,8 km/h (2 Bft) S-SW 202 3,6 C 2,4 C
21.02.2012 22:42 4,9 C 91 % 1028,1 hPa 0,0 l/m 16,2 km/h (3 Bft) W-NW 292 3,6 C 1,4 C
21.02.2012 22:47 4,9 C 91 % 1028,3 hPa 0,0 l/m 5,8 km/h (2 Bft) W 270 3,6 C 3,7 C
21.02.2012 22:52 4,9 C 91 % 1028,4 hPa 0,0 l/m 13,0 km/h (3 Bft) W 270 3,6 C 2,0 C
21.02.2012 22:57 4,9 C 91 % 1028,5 hPa 0,0 l/m 13,3 km/h (3 Bft) W-SW 247 3,6 C 1,9 C
21.02.2012 23:02 4,9 C 91 % 1028,6 hPa 0,0 l/m 9,7 km/h (2 Bft) SW 225 3,6 C 2,6 C
21.02.2012 23:07 4,9 C 91 % 1028,5 hPa 0,0 l/m 15,1 km/h (3 Bft) SW 225 3,6 C 1,6 C
21.02.2012 23:12 4,9 C 91 % 1028,4 hPa 0,0 l/m 18,7 km/h (3 Bft) W 270 3,6 C 1,1 C
21.02.2012 23:17 4,9 C 91 % 1028,4 hPa 0,0 l/m 10,4 km/h (2 Bft) W-SW 247 3,6 C 2,5 C
21.02.2012 23:22 4,9 C 91 % 1028,6 hPa 0,0 l/m 11,5 km/h (2 Bft) W-SW 247 3,6 C 2,2 C
21.02.2012 23:27 4,9 C 91 % 1028,6 hPa 0,0 l/m 9,7 km/h (2 Bft) W-SW 247 3,6 C 2,6 C
21.02.2012 23:32 5,0 C 91 % 1028,5 hPa 0,0 l/m 18,0 km/h (3 Bft) W-NW 292 3,7 C 1,3 C
21.02.2012 23:37 5,0 C 91 % 1028,5 hPa 0,0 l/m 9,4 km/h (2 Bft) W-SW 247 3,7 C 2,8 C
21.02.2012 23:42 5,0 C 91 % 1028,5 hPa 0,0 l/m 9,7 km/h (2 Bft) W 270 3,7 C 2,7 C
21.02.2012 23:47 5,0 C 90 % 1028,6 hPa 0,0 l/m 13,0 km/h (3 Bft) W-SW 247 3,5 C 2,1 C
21.02.2012 23:52 5,0 C 90 % 1028,6 hPa 0,0 l/m 10,8 km/h (2 Bft) W-NW 292 3,5 C 2,5 C
21.02.2012 23:57 5,1 C 90 % 1028,5 hPa 0,0 l/m 15,5 km/h (3 Bft) W-SW 247 3,6 C 1,8 C
_ Min-Zeit 01:02 06:17 06:32 - 22:22 - - 02:37 04:12
Minimum _ 1,2 C 71 % 1025,4 hPa - 2,5 km/h (1 Bft) - - -2,5 C -4,1 C
_ Max-Zeit 23:57 20:27 00:02 11:32 07:12 - - 23:32 22:22
Maximum _ 5,1 C 91 % 1030,8 hPa 0,5 l/m 32,0 km/h
SW (5 Bft)
- - 3,7 C 4,8 C
Durchschnitt _ 2,8 C 84 % 1026,9 hPa #3,6 l/m 12,8 km/h (3 Bft) W-SW - 0,3 C -0,5 C
(c) by David Heller